Terminal Aerodrome Forecast
Issued by NWS Sioux Falls, SD

Home | Current Version | Previous Version | Text Only | Print | Product List | Glossary On
Versions: 1 2 3 4 5 6 7 8 9 10 11 12 13 14 15 16
884
FTUS43 KFSD 170520
TAFFSD
TAF
KFSD 170520Z 1706/1806 18012KT P6SM BKN130 WS015/20040KT
     FM171200 19009KT P6SM BKN080
     FM171900 24011KT P6SM VCTS BKN050CB
     FM172200 27010KT 6SM SHRA VCTS BKN045CB
     FM180100 35008KT 6SM SHRA VCTS OVC050CB=

USA.gov is the U.S. government's official web portal to all federal, state and local government web resources and services.